| time (UTC) | temp F | wind direction | speed knots | gust knots | rain 1hr in | rain 24hr in | rain mn in | humidity % | barometer mb |
| 20260510225525 | 79 | 43 | 0.0 | 0.0 | 0.00 | 0.00 | 0.00 | 40 | 1013.3 |
| 20260510225025 | 80 | 43 | 0.0 | 0.0 | 0.00 | 0.00 | 0.00 | 40 | 1013.1 |
| 20260510224025 | 80 | 54 | 0.0 | 0.9 | 0.00 | 0.00 | 0.00 | 40 | 1013.1 |
| 20260510223525 | 80 | 40 | 0.0 | 0.0 | 0.00 | 0.00 | 0.00 | 38 | 1013.0 |
| 20260510222530 | 81 | 37 | 0.0 | 0.9 | 0.00 | 0.00 | 0.00 | 38 | 1013.0 |
| 20260510222025 | 81 | 43 | 0.0 | 0.9 | 0.00 | 0.00 | 0.00 | 35 | 1013.2 |
| 20260510221525 | 81 | 65 | 0.9 | 1.7 | 0.00 | 0.00 | 0.00 | 36 | 1013.1 |
| 20260510221025 | 81 | 44 | 0.0 | 0.0 | 0.00 | 0.00 | 0.00 | 37 | 1013.1 |
| 20260510220025 | 82 | 111 | 0.9 | 1.7 | 0.00 | 0.00 | 0.00 | 36 | 1013.2 |
| 20260510215525 | 82 | 38 | 0.0 | 0.9 | 0.00 | 0.00 | 0.00 | 36 | 1013.1 |
| 20260510215025 | 82 | 94 | 0.0 | 1.7 | 0.00 | 0.00 | 0.00 | 35 | 1013.1 |
| 20260510214525 | 82 | 35 | 0.0 | 0.9 | 0.00 | 0.00 | 0.00 | 35 | 1013.1 |
| 20260510214025 | 82 | 96 | 0.9 | 1.7 | 0.00 | 0.00 | 0.00 | 35 | 1013.1 |
| 20260510213525 | 82 | 33 | 0.0 | 0.9 | 0.00 | 0.00 | 0.00 | 35 | 1012.9 |
| 20260510213025 | 82 | 56 | 0.0 | 0.9 | 0.00 | 0.00 | 0.00 | 33 | 1012.9 |
| 20260510212525 | 82 | 37 | 0.0 | 0.9 | 0.00 | 0.00 | 0.00 | 34 | 1013.1 |
| 20260510212025 | 82 | 78 | 0.9 | 1.7 | 0.00 | 0.00 | 0.00 | 35 | 1012.9 |
| 20260510211525 | 82 | 115 | 0.0 | 1.7 | 0.00 | 0.00 | 0.00 | 35 | 1013.0 |
| 20260510211025 | 83 | 44 | 0.0 | 0.0 | 0.00 | 0.00 | 0.00 | 33 | 1012.9 |
| 20260510210525 | 83 | 67 | 0.0 | 0.9 | 0.00 | 0.00 | 0.00 | 32 | 1013.0 |
| 20260510210026 | 82 | 59 | 0.0 | 1.7 | 0.00 | 0.00 | 0.00 | 34 | 1013.1 |
| 20260510205525 | 82 | 64 | 0.0 | 1.7 | 0.00 | 0.00 | 0.00 | 33 | 1013.1 |
| 20260510205025 | 82 | 124 | 0.9 | 1.7 | 0.00 | 0.00 | 0.00 | 33 | 1013.1 |
| 20260510204525 | 82 | 97 | 0.9 | 1.7 | 0.00 | 0.00 | 0.00 | 33 | 1013.1 |
| 20260510203525 | 82 | 39 | 0.0 | 0.9 | 0.00 | 0.00 | 0.00 | 33 | 1013.1 |
| 20260510203025 | 82 | 148 | 0.9 | 1.7 | 0.00 | 0.00 | 0.00 | 33 | 1013.1 |
| 20260510201525 | 82 | 104 | 0.9 | 1.7 | 0.00 | 0.00 | 0.00 | 34 | 1013.2 |
| 20260510201025 | 82 | 124 | 0.9 | 3.5 | 0.00 | 0.00 | 0.00 | 33 | 1013.1 |
| 20260510200525 | 82 | 105 | 0.9 | 1.7 | 0.00 | 0.00 | 0.00 | 33 | 1013.1 |
| 20260510200025 | 82 | 175 | 1.7 | 2.6 | 0.00 | 0.00 | 0.00 | 33 | 1013.0 |
| 20260510195526 | 82 | 34 | 0.0 | 0.9 | 0.00 | 0.00 | 0.00 | 34 | 1013.1 |
| 20260510195025 | 82 | 75 | 0.9 | 1.7 | 0.00 | 0.00 | 0.00 | 36 | 1013.2 |
| 20260510194525 | 82 | 50 | 0.0 | 1.7 | 0.00 | 0.00 | 0.00 | 37 | 1013.2 |
| 20260510194025 | 82 | 48 | 0.0 | 1.7 | 0.00 | 0.00 | 0.00 | 35 | 1013.3 |
| 20260510193525 | 82 | 69 | 0.0 | 1.7 | 0.00 | 0.00 | 0.00 | 33 | 1013.4 |
| 20260510193025 | 81 | 67 | 0.0 | 0.9 | 0.00 | 0.00 | 0.00 | 34 | 1013.4 |
| 20260510192525 | 81 | 57 | 0.0 | 1.7 | 0.00 | 0.00 | 0.00 | 36 | 1013.4 |
| 20260510192025 | 81 | 56 | 0.9 | 1.7 | 0.00 | 0.00 | 0.00 | 34 | 1013.6 |
| 20260510191025 | 82 | 49 | 0.0 | 0.9 | 0.00 | 0.00 | 0.00 | 34 | 1013.6 |
| 20260510190525 | 82 | 47 | 0.0 | 0.9 | 0.00 | 0.00 | 0.00 | 34 | 1013.7 |
| 20260510185526 | 81 | 48 | 0.0 | 0.9 | 0.00 | 0.00 | 0.00 | 34 | 1013.7 |
| 20260510184025 | 81 | 38 | 0.9 | 1.7 | 0.00 | 0.00 | 0.00 | 35 | 1013.9 |
| 20260510183525 | 81 | 73 | 0.9 | 2.6 | 0.00 | 0.00 | 0.00 | 35 | 1013.9 |
| 20260510183027 | 81 | 121 | 0.9 | 2.6 | 0.00 | 0.00 | 0.00 | 36 | 1014.1 |
| 20260510182544 | 81 | 245 | 1.7 | 2.6 | 0.00 | 0.00 | 0.00 | 37 | 1014.0 |
| 20260510181526 | 80 | 97 | 0.9 | 1.7 | 0.00 | 0.00 | 0.00 | 35 | 1014.2 |
| 20260510181025 | 81 | 59 | 0.9 | 1.7 | 0.00 | 0.00 | 0.00 | 41 | 1014.1 |
| 20260510180526 | 80 | 44 | 0.0 | 0.9 | 0.00 | 0.00 | 0.00 | 40 | 1014.1 |
| 20260510180026 | 80 | 62 | 0.0 | 1.7 | 0.00 | 0.00 | 0.00 | 39 | 1014.2 |
| 20260510175526 | 80 | 68 | 0.0 | 1.7 | 0.00 | 0.00 | 0.00 | 39 | 1014.3 |
| 20260510174526 | 80 | 93 | 0.9 | 1.7 | 0.00 | 0.00 | 0.00 | 40 | 1014.3 |
| 20260510174025 | 80 | 69 | 0.9 | 1.7 | 0.00 | 0.00 | 0.00 | 41 | 1014.2 |
| 20260510173525 | 80 | 91 | 0.9 | 1.7 | 0.00 | 0.00 | 0.00 | 39 | 1014.2 |
| 20260510173025 | 80 | 86 | 0.0 | 1.7 | 0.00 | 0.00 | 0.00 | 38 | 1014.3 |
| 20260510172525 | 80 | 45 | 0.9 | 3.5 | 0.00 | 0.00 | 0.00 | 38 | 1014.4 |
| 20260510172025 | 80 | 40 | 0.9 | 1.7 | 0.00 | 0.00 | 0.00 | 39 | 1014.4 |
| 20260510171025 | 80 | 39 | 0.0 | 0.9 | 0.00 | 0.00 | 0.00 | 37 | 1014.3 |
| 20260510170525 | 79 | 59 | 0.0 | 1.7 | 0.00 | 0.00 | 0.00 | 37 | 1014.4 |
| 20260510170026 | 79 | 69 | 0.0 | 1.7 | 0.00 | 0.00 | 0.00 | 40 | 1014.4 |
| 20260510165025 | 79 | 69 | 0.0 | 1.7 | 0.00 | 0.00 | 0.00 | 40 | 1014.5 |
| 20260510164546 | 80 | 48 | 0.0 | 0.9 | 0.00 | 0.00 | 0.00 | 39 | 1014.5 |
| 20260510163026 | 79 | 43 | 0.0 | 0.9 | 0.00 | 0.00 | 0.00 | 43 | 1014.7 |
| 20260510162526 | 79 | 77 | 0.9 | 1.7 | 0.00 | 0.00 | 0.00 | 42 | 1014.7 |
| 20260510162040 | 79 | 78 | 0.0 | 1.7 | 0.00 | 0.00 | 0.00 | 42 | 1014.6 |
| 20260510161525 | 79 | 45 | 0.9 | 2.6 | 0.00 | 0.00 | 0.00 | 42 | 1014.8 |
| 20260510161026 | 79 | 41 | 0.9 | 1.7 | 0.00 | 0.00 | 0.00 | 45 | 1014.9 |
| 20260510160525 | 79 | 43 | 0.0 | 1.7 | 0.00 | 0.00 | 0.00 | 46 | 1014.8 |
| 20260510160026 | 79 | 73 | 0.9 | 1.7 | 0.00 | 0.00 | 0.00 | 46 | 1015.0 |
| 20260510155525 | 80 | 76 | 0.9 | 1.7 | 0.00 | 0.00 | 0.00 | 46 | 1015.0 |
| 20260510155025 | 81 | 65 | 0.9 | 0.9 | 0.00 | 0.00 | 0.00 | 46 | 1015.1 |
| 20260510154526 | 80 | 36 | 0.0 | 1.7 | 0.00 | 0.00 | 0.00 | 47 | 1015.1 |
| 20260510153540 | 79 | 43 | 0.0 | 0.9 | 0.00 | 0.00 | 0.00 | 48 | 1015.1 |
| 20260510153026 | 79 | 152 | 0.9 | 1.7 | 0.00 | 0.00 | 0.00 | 47 | 1015.2 |
| 20260510152526 | 80 | 132 | 0.9 | 1.7 | 0.00 | 0.00 | 0.00 | 46 | 1015.1 |
| 20260510152026 | 80 | 40 | 0.0 | 0.9 | 0.00 | 0.00 | 0.00 | 47 | 1015.1 |
| 20260510151526 | 80 | 39 | 0.0 | 0.9 | 0.00 | 0.00 | 0.00 | 48 | 1015.0 |
| 20260510151025 | 80 | 49 | 0.0 | 0.9 | 0.00 | 0.00 | 0.00 | 48 | 1015.0 |
| 20260510150526 | 79 | 70 | 0.0 | 0.9 | 0.00 | 0.00 | 0.00 | 48 | 1015.1 |
| 20260510150026 | 79 | 126 | 0.9 | 0.9 | 0.00 | 0.00 | 0.00 | 50 | 1015.1 |
| 20260510145526 | 79 | 65 | 0.9 | 1.7 | 0.00 | 0.00 | 0.00 | 50 | 1015.1 |
| 20260510145026 | 79 | 58 | 0.9 | 1.7 | 0.00 | 0.00 | 0.00 | 49 | 1015.1 |
| 20260510144526 | 79 | 57 | 0.9 | 3.5 | 0.00 | 0.00 | 0.00 | 51 | 1015.1 |
| 20260510143525 | 79 | 38 | 0.0 | 0.9 | 0.00 | 0.00 | 0.00 | 54 | 1015.0 |
| 20260510142526 | 79 | 46 | 0.0 | 0.9 | 0.00 | 0.00 | 0.00 | 54 | 1014.9 |
| 20260510142026 | 79 | 56 | 0.0 | 0.9 | 0.00 | 0.00 | 0.00 | 52 | 1014.9 |
| 20260510141526 | 78 | 64 | 0.9 | 1.7 | 0.00 | 0.00 | 0.00 | 54 | 1015.0 |
| 20260510140026 | 77 | 48 | 0.0 | 0.9 | 0.00 | 0.00 | 0.00 | 56 | 1015.0 |
| 20260510135526 | 77 | 52 | 0.0 | 0.9 | 0.00 | 0.00 | 0.00 | 59 | 1015.1 |
| 20260510135026 | 77 | 50 | 0.0 | 0.9 | 0.00 | 0.00 | 0.00 | 57 | 1015.0 |
| 20260510134526 | 78 | 52 | 0.0 | 0.9 | 0.00 | 0.00 | 0.00 | 56 | 1015.0 |
| 20260510134026 | 76 | 41 | 0.0 | 0.9 | 0.00 | 0.00 | 0.00 | 59 | 1014.9 |
| 20260510131525 | 73 | 43 | 0.0 | 0.9 | 0.00 | 0.00 | 0.00 | 71 | 1014.9 |
| 20260510131026 | 73 | 42 | 0.0 | 0.9 | 0.00 | 0.00 | 0.00 | 74 | 1014.6 |
| 20260510130526 | 72 | 45 | 0.0 | 0.0 | 0.00 | 0.00 | 0.00 | 77 | 1014.6 |
| 20260510130048 | 73 | 55 | 0.0 | 0.9 | 0.00 | 0.00 | 0.00 | 75 | 1014.5 |
| 20260510125526 | 72 | 52 | 0.0 | 0.9 | 0.00 | 0.00 | 0.00 | 76 | 1014.4 |
| 20260510125026 | 70 | 55 | 0.0 | 0.9 | 0.00 | 0.00 | 0.00 | 81 | 1014.5 |
| 20260510124526 | 70 | 37 | 0.0 | 0.0 | 0.00 | 0.00 | 0.00 | 83 | 1014.4 |
| 20260510124025 | 69 | 44 | 0.0 | 0.0 | 0.00 | 0.00 | 0.00 | 84 | 1014.5 |
| 20260510123026 | 67 | 44 | 0.0 | 0.0 | 0.00 | 0.00 | 0.00 | 90 | 1014.5 |
| 20260510122526 | 65 | 43 | 0.0 | 0.0 | 0.00 | 0.00 | 0.00 | 93 | 1014.3 |
| 20260510122026 | 64 | 44 | 0.0 | 0.0 | 0.00 | 0.00 | 0.00 | 94 | 1014.3 |
| 20260510121526 | 64 | 45 | 0.0 | 0.0 | 0.00 | 0.00 | 0.00 | 95 | 1014.3 |
| 20260510121026 | 63 | 46 | 0.0 | 0.0 | 0.00 | 0.00 | 0.00 | 96 | 1014.2 |
| 20260510115526 | 62 | 45 | 0.0 | 0.0 | 0.00 | 0.00 | 0.00 | 98 | 1014.1 |
| 20260510115026 | 61 | 45 | 0.0 | 0.0 | 0.00 | 0.00 | 0.00 | 98 | 1014.1 |
| 20260510114525 | 61 | 45 | 0.0 | 0.0 | 0.00 | 0.00 | 0.00 | 98 | 1014.0 |
| 20260510114025 | 61 | 45 | 0.0 | 0.0 | 0.00 | 0.00 | 0.00 | 99 | 1014.0 |
| 20260510113526 | 60 | 43 | 0.0 | 0.0 | 0.00 | 0.00 | 0.00 | 99 | 1013.8 |
| 20260510113025 | 60 | 43 | 0.0 | 0.0 | 0.00 | 0.00 | 0.00 | 99 | 1013.8 |
| 20260510112525 | 60 | 43 | 0.0 | 0.0 | 0.00 | 0.00 | 0.00 | 99 | 1013.7 |
| 20260510112026 | 60 | 43 | 0.0 | 0.0 | 0.00 | 0.00 | 0.00 | 99 | 1013.6 |
| 20260510111026 | 59 | 43 | 0.0 | 0.0 | 0.00 | 0.00 | 0.00 | 99 | 1013.5 |
| 20260510110525 | 59 | 43 | 0.0 | 0.0 | 0.00 | 0.00 | 0.00 | 99 | 1013.4 |
| 20260510104526 | 59 | 42 | 0.0 | 0.0 | 0.00 | 0.00 | 0.00 | 99 | 1013.4 |
| 20260510104026 | 59 | 41 | 0.0 | 0.0 | 0.00 | 0.00 | 0.00 | 99 | 1013.2 |
| 20260510103526 | 59 | 41 | 0.0 | 0.0 | 0.00 | 0.00 | 0.00 | 99 | 1013.1 |
| 20260510103044 | 59 | 42 | 0.0 | 0.0 | 0.00 | 0.00 | 0.00 | 99 | 1013.0 |
| 20260510102526 | 59 | 42 | 0.0 | 0.0 | 0.00 | 0.00 | 0.00 | 99 | 1012.9 |
| 20260510102026 | 59 | 42 | 0.0 | 0.0 | 0.00 | 0.00 | 0.00 | 99 | 1012.8 |
| 20260510101525 | 60 | 42 | 0.0 | 0.0 | 0.00 | 0.00 | 0.00 | 99 | 1012.7 |
| 20260510100526 | 59 | 42 | 0.0 | 0.0 | 0.00 | 0.00 | 0.00 | 99 | 1012.4 |
| 20260510100026 | 59 | 42 | 0.0 | 0.0 | 0.00 | 0.00 | 0.00 | 99 | 1012.4 |
| 20260510095527 | 59 | 42 | 0.0 | 0.0 | 0.00 | 0.00 | 0.00 | 99 | 1012.3 |
| 20260510094525 | 59 | 42 | 0.0 | 0.0 | 0.00 | 0.00 | 0.00 | 99 | 1012.2 |
| 20260510093525 | 59 | 42 | 0.0 | 0.0 | 0.00 | 0.00 | 0.00 | 99 | 1012.2 |
| 20260510093026 | 59 | 43 | 0.0 | 0.0 | 0.00 | 0.00 | 0.00 | 99 | 1012.2 |
| 20260510092526 | 59 | 43 | 0.0 | 0.0 | 0.00 | 0.00 | 0.00 | 99 | 1012.1 |
| 20260510091026 | 60 | 43 | 0.0 | 0.0 | 0.00 | 0.00 | 0.00 | 99 | 1012.0 |
| 20260510090526 | 60 | 43 | 0.0 | 0.0 | 0.00 | 0.00 | 0.00 | 99 | 1011.9 |
| 20260510090026 | 60 | 43 | 0.0 | 0.0 | 0.00 | 0.00 | 0.00 | 99 | 1012.0 |
| 20260510085526 | 60 | 43 | 0.0 | 0.0 | 0.00 | 0.00 | 0.00 | 99 | 1012.0 |
| 20260510085031 | 60 | 42 | 0.0 | 0.0 | 0.00 | 0.00 | 0.00 | 99 | 1011.9 |
| 20260510084526 | 60 | 42 | 0.0 | 0.0 | 0.00 | 0.00 | 0.00 | 99 | 1011.7 |
| 20260510084049 | 60 | 42 | 0.0 | 0.0 | 0.00 | 0.00 | 0.00 | 99 | 1011.8 |
| 20260510083526 | 60 | 42 | 0.0 | 0.0 | 0.00 | 0.00 | 0.00 | 99 | 1011.7 |
| 20260510082526 | 60 | 42 | 0.0 | 0.0 | 0.00 | 0.00 | 0.00 | 99 | 1011.6 |
| 20260510082026 | 60 | 42 | 0.0 | 0.0 | 0.00 | 0.00 | 0.00 | 99 | 1011.7 |
| 20260510081537 | 60 | 42 | 0.0 | 0.0 | 0.00 | 0.00 | 0.00 | 98 | 1011.7 |
| 20260510080526 | 60 | 42 | 0.0 | 0.0 | 0.00 | 0.00 | 0.00 | 98 | 1011.5 |
| 20260510080027 | 60 | 42 | 0.0 | 0.0 | 0.00 | 0.00 | 0.00 | 98 | 1011.6 |
| 20260510075526 | 60 | 42 | 0.0 | 0.0 | 0.00 | 0.00 | 0.00 | 98 | 1011.6 |
| 20260510075026 | 60 | 43 | 0.0 | 0.0 | 0.00 | 0.00 | 0.00 | 98 | 1011.5 |
| 20260510074526 | 60 | 42 | 0.0 | 0.0 | 0.00 | 0.00 | 0.00 | 98 | 1011.5 |
| 20260510074026 | 60 | 42 | 0.0 | 0.0 | 0.00 | 0.00 | 0.00 | 98 | 1011.4 |
| 20260510073525 | 60 | 42 | 0.0 | 0.0 | 0.00 | 0.00 | 0.00 | 98 | 1011.3 |
| 20260510073053 | 60 | 42 | 0.0 | 0.0 | 0.00 | 0.00 | 0.00 | 98 | 1011.3 |
| 20260510072526 | 60 | 42 | 0.0 | 0.0 | 0.00 | 0.00 | 0.00 | 98 | 1011.2 |
| 20260510072026 | 60 | 42 | 0.0 | 0.0 | 0.00 | 0.00 | 0.00 | 98 | 1011.2 |
| 20260510071527 | 60 | 42 | 0.0 | 0.0 | 0.00 | 0.00 | 0.00 | 98 | 1011.3 |
| 20260510071025 | 60 | 42 | 0.0 | 0.0 | 0.00 | 0.00 | 0.00 | 98 | 1011.5 |
| 20260510070526 | 60 | 42 | 0.0 | 0.0 | 0.00 | 0.00 | 0.00 | 98 | 1011.5 |
| 20260510070026 | 61 | 42 | 0.0 | 0.0 | 0.00 | 0.00 | 0.00 | 97 | 1011.5 |
| 20260510065025 | 61 | 42 | 0.0 | 0.0 | 0.00 | 0.00 | 0.00 | 97 | 1011.5 |
| 20260510064525 | 61 | 42 | 0.0 | 0.0 | 0.00 | 0.00 | 0.00 | 97 | 1011.5 |
| 20260510064026 | 61 | 42 | 0.0 | 0.0 | 0.00 | 0.00 | 0.00 | 97 | 1011.5 |
| 20260510063526 | 61 | 42 | 0.0 | 0.0 | 0.00 | 0.00 | 0.00 | 97 | 1011.5 |
| 20260510063026 | 61 | 42 | 0.0 | 0.0 | 0.00 | 0.00 | 0.00 | 97 | 1011.4 |
| 20260510062526 | 61 | 42 | 0.0 | 0.0 | 0.00 | 0.00 | 0.00 | 97 | 1011.2 |
| 20260510062026 | 61 | 42 | 0.0 | 0.0 | 0.00 | 0.00 | 0.00 | 97 | 1011.2 |
| 20260510061526 | 61 | 42 | 0.0 | 0.0 | 0.00 | 0.00 | 0.00 | 97 | 1011.5 |
| 20260510061026 | 61 | 42 | 0.0 | 0.0 | 0.00 | 0.00 | 0.00 | 97 | 1011.4 |
| 20260510060025 | 61 | 42 | 0.0 | 0.0 | 0.00 | 0.00 | 0.00 | 97 | 1011.5 |
| 20260510055026 | 61 | 42 | 0.0 | 0.0 | 0.00 | 0.00 | 0.00 | 97 | 1011.6 |
| 20260510054526 | 61 | 42 | 0.0 | 0.0 | 0.00 | 0.00 | 0.00 | 97 | 1011.5 |
| 20260510054026 | 62 | 42 | 0.0 | 0.0 | 0.00 | 0.00 | 0.00 | 97 | 1011.6 |
| 20260510053526 | 62 | 43 | 0.0 | 0.0 | 0.00 | 0.00 | 0.00 | 97 | 1011.7 |
| 20260510053026 | 62 | 43 | 0.0 | 0.0 | 0.00 | 0.00 | 0.00 | 97 | 1011.8 |
| 20260510052526 | 62 | 44 | 0.0 | 0.0 | 0.00 | 0.00 | 0.00 | 97 | 1011.8 |
| 20260510052044 | 62 | 44 | 0.0 | 0.0 | 0.00 | 0.00 | 0.00 | 97 | 1011.9 |
| 20260510051526 | 62 | 44 | 0.0 | 0.0 | 0.00 | 0.00 | 0.00 | 97 | 1011.9 |
| 20260510051026 | 62 | 44 | 0.0 | 0.0 | 0.00 | 0.00 | 0.00 | 97 | 1011.8 |
| 20260510050526 | 62 | 44 | 0.0 | 0.0 | 0.00 | 0.00 | 0.00 | 97 | 1011.8 |
| 20260510050026 | 62 | 44 | 0.0 | 0.0 | 0.00 | 0.00 | 0.00 | 97 | 1011.8 |
| 20260510045526 | 62 | 44 | 0.0 | 0.0 | 0.00 | 0.00 | 0.00 | 97 | 1011.9 |
| 20260510045026 | 62 | 44 | 0.0 | 0.0 | 0.00 | 0.00 | 0.00 | 97 | 1012.0 |
| 20260510044526 | 62 | 44 | 0.0 | 0.0 | 0.00 | 0.00 | 0.00 | 97 | 1012.0 |
| 20260510044026 | 62 | 44 | 0.0 | 0.0 | 0.00 | 0.00 | 0.00 | 97 | 1012.0 |
| 20260510043526 | 62 | 44 | 0.0 | 0.0 | 0.00 | 0.00 | 0.00 | 97 | 1012.0 |
| 20260510043026 | 62 | 44 | 0.0 | 0.0 | 0.00 | 0.00 | 0.00 | 97 | 1012.0 |
| 20260510042025 | 62 | 44 | 0.0 | 0.0 | 0.00 | 0.00 | 0.00 | 96 | 1011.9 |
| 20260510041526 | 62 | 44 | 0.0 | 0.0 | 0.00 | 0.00 | 0.00 | 96 | 1011.9 |
| 20260510041026 | 62 | 44 | 0.0 | 0.0 | 0.00 | 0.00 | 0.00 | 96 | 1011.9 |
| 20260510040526 | 62 | 44 | 0.0 | 0.0 | 0.00 | 0.00 | 0.00 | 96 | 1011.9 |
| 20260510035525 | 62 | 44 | 0.0 | 0.0 | 0.00 | 0.00 | 0.00 | 96 | 1011.8 |
| 20260510032525 | 63 | 44 | 0.0 | 0.0 | 0.00 | 0.00 | 0.00 | 95 | 1011.6 |
| 20260510032026 | 63 | 44 | 0.0 | 0.0 | 0.00 | 0.00 | 0.00 | 95 | 1011.6 |
| 20260510031526 | 63 | 44 | 0.0 | 0.0 | 0.00 | 0.00 | 0.00 | 95 | 1011.6 |
| 20260510031025 | 63 | 44 | 0.0 | 0.0 | 0.00 | 0.00 | 0.00 | 95 | 1011.6 |
| 20260510030526 | 63 | 44 | 0.0 | 0.0 | 0.00 | 0.00 | 0.00 | 95 | 1011.5 |
| 20260510023526 | 63 | 44 | 0.0 | 0.0 | 0.00 | 0.00 | 0.00 | 94 | 1011.5 |
| 20260510023027 | 64 | 44 | 0.0 | 0.0 | 0.00 | 0.00 | 0.00 | 94 | 1011.5 |
| 20260510022031 | 64 | 44 | 0.0 | 0.0 | 0.00 | 0.00 | 0.00 | 94 | 1011.5 |
| 20260510020941 | 64 | 44 | 0.0 | 0.0 | 0.00 | 0.00 | 0.00 | 93 | 1011.3 |
| 20260510020026 | 64 | 44 | 0.0 | 0.0 | 0.00 | 0.00 | 0.00 | 92 | 1011.4 |
| 20260510015026 | 64 | 44 | 0.0 | 0.0 | 0.00 | 0.00 | 0.00 | 91 | 1011.2 |
| 20260510014525 | 64 | 44 | 0.0 | 0.0 | 0.00 | 0.00 | 0.00 | 91 | 1011.0 |
| 20260510014026 | 65 | 44 | 0.0 | 0.0 | 0.00 | 0.00 | 0.00 | 91 | 1010.9 |
| 20260510013526 | 65 | 44 | 0.0 | 0.0 | 0.00 | 0.00 | 0.00 | 90 | 1010.9 |
| 20260510013025 | 65 | 44 | 0.0 | 0.0 | 0.00 | 0.00 | 0.00 | 90 | 1010.9 |
| 20260510012526 | 65 | 43 | 0.0 | 0.0 | 0.00 | 0.00 | 0.00 | 89 | 1010.9 |
| 20260510012025 | 65 | 43 | 0.0 | 0.0 | 0.00 | 0.00 | 0.00 | 89 | 1010.8 |
| 20260510011526 | 66 | 43 | 0.0 | 0.0 | 0.00 | 0.00 | 0.00 | 89 | 1010.8 |
| 20260510011025 | 66 | 44 | 0.0 | 0.0 | 0.00 | 0.00 | 0.00 | 88 | 1010.7 |
| 20260510010526 | 66 | 44 | 0.0 | 0.0 | 0.00 | 0.00 | 0.00 | 87 | 1010.6 |
| 20260510010026 | 66 | 43 | 0.0 | 0.0 | 0.00 | 0.00 | 0.00 | 87 | 1010.5 |
| 20260510005545 | 66 | 43 | 0.0 | 0.0 | 0.00 | 0.00 | 0.00 | 86 | 1010.5 |
| 20260510005025 | 67 | 43 | 0.0 | 0.0 | 0.00 | 0.00 | 0.00 | 86 | 1010.6 |
| 20260510004525 | 67 | 43 | 0.0 | 0.0 | 0.00 | 0.00 | 0.00 | 85 | 1010.5 |
| 20260510004026 | 67 | 43 | 0.0 | 0.0 | 0.00 | 0.00 | 0.00 | 85 | 1010.4 |
| 20260510003526 | 67 | 42 | 0.0 | 0.0 | 0.00 | 0.00 | 0.00 | 85 | 1010.4 |
| 20260510003025 | 68 | 44 | 0.0 | 0.0 | 0.00 | 0.00 | 0.00 | 84 | 1010.3 |
| 20260510002025 | 68 | 46 | 0.0 | 0.0 | 0.00 | 0.00 | 0.00 | 83 | 1010.5 |
| 20260510001525 | 68 | 46 | 0.0 | 0.0 | 0.00 | 0.00 | 0.00 | 82 | 1010.5 |
| 20260510001025 | 69 | 46 | 0.0 | 0.0 | 0.00 | 0.00 | 0.00 | 82 | 1010.3 |
| 20260510000525 | 69 | 46 | 0.0 | 0.0 | 0.00 | 0.00 | 0.00 | 81 | 1010.3 |
| 20260510000025 | 69 | 46 | 0.0 | 0.0 | 0.00 | 0.00 | 0.00 | 80 | 1010.3 |
| 20260509235526 | 69 | 46 | 0.0 | 0.0 | 0.00 | 0.00 | 0.00 | 80 | 1010.4 |
| 20260509235025 | 70 | 46 | 0.0 | 0.0 | 0.00 | 0.00 | 0.00 | 79 | 1010.3 |
| 20260509234026 | 70 | 47 | 0.0 | 0.0 | 0.00 | 0.00 | 0.00 | 78 | 1010.0 |
| 20260509233525 | 70 | 47 | 0.0 | 0.0 | 0.00 | 0.00 | 0.00 | 77 | 1009.8 |
| 20260509233026 | 71 | 42 | 0.0 | 0.0 | 0.00 | 0.00 | 0.00 | 76 | 1009.9 |
| 20260509232525 | 71 | 33 | 0.0 | 0.9 | 0.00 | 0.00 | 0.00 | 76 | 1009.9 |
| 20260509232028 | 71 | 44 | 0.0 | 0.9 | 0.00 | 0.00 | 0.00 | 77 | 1009.9 |
| 20260509231526 | 71 | 43 | 0.0 | 0.0 | 0.00 | 0.00 | 0.00 | 76 | 1009.7 |
| 20260509231026 | 71 | 43 | 0.0 | 0.9 | 0.00 | 0.00 | 0.00 | 76 | 1009.7 |
| 20260509230525 | 71 | 39 | 0.0 | 0.0 | 0.00 | 0.00 | 0.00 | 75 | 1009.7 |